sensor_id;sensor_type;location;lat;lon;timestamp;P1;durP1;ratioP1;P2;durP2;ratioP2
57047;SDS011;42934;54.294;18.598;2023-08-01T00:00:12;6.03;;;3.70;;
57047;SDS011;42934;54.294;18.598;2023-08-01T00:03:03;5.32;;;3.72;;
57047;SDS011;42934;54.294;18.598;2023-08-01T00:08:02;4.25;;;3.40;;
57047;SDS011;42934;54.294;18.598;2023-08-01T00:13:01;4.95;;;3.40;;
57047;SDS011;42934;54.294;18.598;2023-08-01T00:15:32;5.90;;;3.53;;
57047;SDS011;42934;54.294;18.598;2023-08-01T00:18:01;5.10;;;3.70;;
57047;SDS011;42934;54.294;18.598;2023-08-01T00:20:30;5.97;;;3.63;;
57047;SDS011;42934;54.294;18.598;2023-08-01T00:22:59;5.97;;;3.63;;
57047;SDS011;42934;54.294;18.598;2023-08-01T00:25:29;4.30;;;3.60;;
57047;SDS011;42934;54.294;18.598;2023-08-01T00:27:58;8.43;;;4.00;;
57047;SDS011;42934;54.294;18.598;2023-08-01T00:30:27;5.70;;;3.70;;
57047;SDS011;42934;54.294;18.598;2023-08-01T00:32:58;5.75;;;3.70;;
57047;SDS011;42934;54.294;18.598;2023-08-01T00:35:28;5.75;;;3.78;;
57047;SDS011;42934;54.294;18.598;2023-08-01T00:37:57;6.90;;;4.18;;
57047;SDS011;42934;54.294;18.598;2023-08-01T00:40:29;3.95;;;3.40;;
57047;SDS011;42934;54.294;18.598;2023-08-01T00:42:59;5.68;;;3.50;;
57047;SDS011;42934;54.294;18.598;2023-08-01T00:45:28;7.32;;;3.97;;
57047;SDS011;42934;54.294;18.598;2023-08-01T00:48:00;4.65;;;3.60;;
57047;SDS011;42934;54.294;18.598;2023-08-01T00:50:30;9.60;;;3.83;;
57047;SDS011;42934;54.294;18.598;2023-08-01T00:52:59;5.18;;;3.90;;
57047;SDS011;42934;54.294;18.598;2023-08-01T00:57:58;5.90;;;3.50;;
57047;SDS011;42934;54.294;18.598;2023-08-01T01:00:28;6.75;;;3.60;;
57047;SDS011;42934;54.294;18.598;2023-08-01T01:02:59;5.78;;;3.20;;
57047;SDS011;42934;54.294;18.598;2023-08-01T01:05:31;5.70;;;3.13;;
57047;SDS011;42934;54.294;18.598;2023-08-01T01:08:03;5.22;;;2.80;;
57047;SDS011;42934;54.294;18.598;2023-08-01T01:10:32;5.75;;;2.97;;
57047;SDS011;42934;54.294;18.598;2023-08-01T01:13:01;5.82;;;3.30;;
57047;SDS011;42934;54.294;18.598;2023-08-01T01:15:31;3.72;;;3.00;;
57047;SDS011;42934;54.294;18.598;2023-08-01T01:18:01;4.53;;;3.50;;
57047;SDS011;42934;54.294;18.598;2023-08-01T01:20:33;4.07;;;3.30;;
57047;SDS011;42934;54.294;18.598;2023-08-01T01:23:03;4.13;;;2.83;;
57047;SDS011;42934;54.294;18.598;2023-08-01T01:25:34;6.80;;;3.28;;
57047;SDS011;42934;54.294;18.598;2023-08-01T01:28:04;10.82;;;3.90;;
57047;SDS011;42934;54.294;18.598;2023-08-01T01:30:35;5.00;;;3.17;;
57047;SDS011;42934;54.294;18.598;2023-08-01T01:33:05;6.53;;;3.10;;
57047;SDS011;42934;54.294;18.598;2023-08-01T01:35:38;4.88;;;3.35;;
57047;SDS011;42934;54.294;18.598;2023-08-01T01:38:08;6.20;;;3.35;;
57047;SDS011;42934;54.294;18.598;2023-08-01T01:40:38;4.75;;;3.15;;
57047;SDS011;42934;54.294;18.598;2023-08-01T01:43:07;4.10;;;3.10;;
57047;SDS011;42934;54.294;18.598;2023-08-01T01:45:37;7.18;;;3.13;;
57047;SDS011;42934;54.294;18.598;2023-08-01T01:48:06;6.55;;;3.20;;
57047;SDS011;42934;54.294;18.598;2023-08-01T01:50:35;5.53;;;3.30;;
57047;SDS011;42934;54.294;18.598;2023-08-01T01:53:06;6.63;;;3.53;;
57047;SDS011;42934;54.294;18.598;2023-08-01T01:55:36;15.52;;;3.53;;
57047;SDS011;42934;54.294;18.598;2023-08-01T01:58:05;6.30;;;3.20;;
57047;SDS011;42934;54.294;18.598;2023-08-01T02:00:34;4.78;;;3.22;;
57047;SDS011;42934;54.294;18.598;2023-08-01T02:03:04;4.03;;;3.30;;
57047;SDS011;42934;54.294;18.598;2023-08-01T02:05:37;6.35;;;3.28;;
57047;SDS011;42934;54.294;18.598;2023-08-01T02:08:09;4.72;;;3.35;;
57047;SDS011;42934;54.294;18.598;2023-08-01T02:10:39;5.55;;;3.42;;
57047;SDS011;42934;54.294;18.598;2023-08-01T02:13:08;4.05;;;3.42;;
57047;SDS011;42934;54.294;18.598;2023-08-01T02:15:37;5.97;;;3.28;;
57047;SDS011;42934;54.294;18.598;2023-08-01T02:18:06;5.87;;;3.40;;
57047;SDS011;42934;54.294;18.598;2023-08-01T02:20:36;5.88;;;3.47;;
57047;SDS011;42934;54.294;18.598;2023-08-01T02:23:05;6.00;;;3.60;;
57047;SDS011;42934;54.294;18.598;2023-08-01T02:25:39;4.80;;;3.65;;
57047;SDS011;42934;54.294;18.598;2023-08-01T02:28:08;6.47;;;3.80;;
57047;SDS011;42934;54.294;18.598;2023-08-01T02:30:39;6.22;;;3.50;;
57047;SDS011;42934;54.294;18.598;2023-08-01T02:33:08;4.97;;;3.72;;
57047;SDS011;42934;54.294;18.598;2023-08-01T02:35:38;4.97;;;3.60;;
57047;SDS011;42934;54.294;18.598;2023-08-01T02:38:07;7.13;;;3.97;;
57047;SDS011;42934;54.294;18.598;2023-08-01T02:40:38;6.43;;;3.58;;
57047;SDS011;42934;54.294;18.598;2023-08-01T02:43:07;6.63;;;3.75;;
57047;SDS011;42934;54.294;18.598;2023-08-01T02:45:37;6.38;;;3.58;;
57047;SDS011;42934;54.294;18.598;2023-08-01T02:48:06;5.40;;;3.37;;
57047;SDS011;42934;54.294;18.598;2023-08-01T02:50:35;6.22;;;3.63;;
57047;SDS011;42934;54.294;18.598;2023-08-01T02:53:05;4.97;;;3.53;;
57047;SDS011;42934;54.294;18.598;2023-08-01T02:55:34;6.35;;;3.45;;
57047;SDS011;42934;54.294;18.598;2023-08-01T02:58:04;6.25;;;3.80;;
57047;SDS011;42934;54.294;18.598;2023-08-01T03:00:37;5.97;;;3.38;;
57047;SDS011;42934;54.294;18.598;2023-08-01T03:03:07;4.47;;;3.55;;
57047;SDS011;42934;54.294;18.598;2023-08-01T03:05:37;6.90;;;3.63;;
57047;SDS011;42934;54.294;18.598;2023-08-01T03:08:06;5.15;;;3.17;;
57047;SDS011;42934;54.294;18.598;2023-08-01T03:10:36;7.38;;;3.58;;
57047;SDS011;42934;54.294;18.598;2023-08-01T03:13:06;4.82;;;3.55;;
57047;SDS011;42934;54.294;18.598;2023-08-01T03:15:36;6.28;;;3.75;;
57047;SDS011;42934;54.294;18.598;2023-08-01T03:18:05;5.60;;;3.63;;
57047;SDS011;42934;54.294;18.598;2023-08-01T03:20:35;5.30;;;3.45;;
57047;SDS011;42934;54.294;18.598;2023-08-01T03:23:04;8.43;;;3.90;;
57047;SDS011;42934;54.294;18.598;2023-08-01T03:25:33;5.00;;;3.53;;
57047;SDS011;42934;54.294;18.598;2023-08-01T03:28:03;8.10;;;3.63;;
57047;SDS011;42934;54.294;18.598;2023-08-01T03:30:34;4.60;;;3.40;;
57047;SDS011;42934;54.294;18.598;2023-08-01T03:33:03;5.72;;;3.13;;
57047;SDS011;42934;54.294;18.598;2023-08-01T03:35:34;6.68;;;4.00;;
57047;SDS011;42934;54.294;18.598;2023-08-01T03:38:03;4.40;;;3.53;;
57047;SDS011;42934;54.294;18.598;2023-08-01T03:40:33;5.55;;;4.03;;
57047;SDS011;42934;54.294;18.598;2023-08-01T03:43:03;6.70;;;3.80;;
57047;SDS011;42934;54.294;18.598;2023-08-01T03:45:34;7.45;;;4.00;;
57047;SDS011;42934;54.294;18.598;2023-08-01T03:48:04;6.03;;;3.55;;
57047;SDS011;42934;54.294;18.598;2023-08-01T03:50:33;6.70;;;3.92;;
57047;SDS011;42934;54.294;18.598;2023-08-01T03:53:02;5.40;;;3.50;;
57047;SDS011;42934;54.294;18.598;2023-08-01T03:55:32;8.70;;;3.60;;
57047;SDS011;42934;54.294;18.598;2023-08-01T03:58:01;6.00;;;3.67;;
57047;SDS011;42934;54.294;18.598;2023-08-01T04:00:31;5.60;;;3.67;;
57047;SDS011;42934;54.294;18.598;2023-08-01T04:03:02;4.88;;;3.72;;
57047;SDS011;42934;54.294;18.598;2023-08-01T04:05:31;5.50;;;3.85;;
57047;SDS011;42934;54.294;18.598;2023-08-01T04:08:01;5.50;;;3.90;;
57047;SDS011;42934;54.294;18.598;2023-08-01T04:12:59;7.03;;;3.58;;
57047;SDS011;42934;54.294;18.598;2023-08-01T04:15:29;4.78;;;3.58;;
57047;SDS011;42934;54.294;18.598;2023-08-01T04:17:58;5.67;;;3.80;;
57047;SDS011;42934;54.294;18.598;2023-08-01T04:20:29;6.25;;;3.63;;
57047;SDS011;42934;54.294;18.598;2023-08-01T04:22:58;5.88;;;3.75;;
57047;SDS011;42934;54.294;18.598;2023-08-01T04:25:27;7.82;;;3.70;;
57047;SDS011;42934;54.294;18.598;2023-08-01T04:27:56;8.45;;;4.15;;
57047;SDS011;42934;54.294;18.598;2023-08-01T04:30:26;6.97;;;3.72;;
57047;SDS011;42934;54.294;18.598;2023-08-01T04:32:55;5.30;;;3.77;;
57047;SDS011;42934;54.294;18.598;2023-08-01T04:35:24;6.03;;;4.25;;
57047;SDS011;42934;54.294;18.598;2023-08-01T04:37:55;6.73;;;3.77;;
57047;SDS011;42934;54.294;18.598;2023-08-01T04:40:24;6.30;;;3.70;;
57047;SDS011;42934;54.294;18.598;2023-08-01T04:42:53;6.10;;;4.00;;
57047;SDS011;42934;54.294;18.598;2023-08-01T04:45:23;7.72;;;4.25;;
57047;SDS011;42934;54.294;18.598;2023-08-01T04:47:52;6.93;;;4.25;;
57047;SDS011;42934;54.294;18.598;2023-08-01T04:50:21;6.25;;;4.20;;
57047;SDS011;42934;54.294;18.598;2023-08-01T04:52:51;5.57;;;3.10;;
57047;SDS011;42934;54.294;18.598;2023-08-01T04:55:21;7.70;;;4.18;;
57047;SDS011;42934;54.294;18.598;2023-08-01T04:57:51;6.97;;;4.35;;
57047;SDS011;42934;54.294;18.598;2023-08-01T05:00:20;6.93;;;3.95;;
57047;SDS011;42934;54.294;18.598;2023-08-01T05:02:50;6.20;;;4.10;;
57047;SDS011;42934;54.294;18.598;2023-08-01T05:05:20;8.60;;;4.30;;
57047;SDS011;42934;54.294;18.598;2023-08-01T05:07:49;8.83;;;4.20;;
57047;SDS011;42934;54.294;18.598;2023-08-01T05:10:18;5.10;;;4.38;;
57047;SDS011;42934;54.294;18.598;2023-08-01T05:12:49;6.15;;;4.75;;
57047;SDS011;42934;54.294;18.598;2023-08-01T05:15:18;8.43;;;4.80;;
57047;SDS011;42934;54.294;18.598;2023-08-01T05:17:47;7.60;;;4.68;;
57047;SDS011;42934;54.294;18.598;2023-08-01T05:20:17;5.15;;;3.90;;
57047;SDS011;42934;54.294;18.598;2023-08-01T05:22:46;7.95;;;4.50;;
57047;SDS011;42934;54.294;18.598;2023-08-01T05:25:15;6.65;;;4.55;;
57047;SDS011;42934;54.294;18.598;2023-08-01T05:27:44;7.57;;;4.22;;
57047;SDS011;42934;54.294;18.598;2023-08-01T05:30:15;7.03;;;4.40;;
57047;SDS011;42934;54.294;18.598;2023-08-01T05:32:45;8.60;;;4.18;;
57047;SDS011;42934;54.294;18.598;2023-08-01T05:35:15;9.18;;;4.63;;
57047;SDS011;42934;54.294;18.598;2023-08-01T05:37:45;10.43;;;4.75;;
57047;SDS011;42934;54.294;18.598;2023-08-01T05:40:14;7.03;;;4.65;;
57047;SDS011;42934;54.294;18.598;2023-08-01T05:42:43;7.63;;;4.67;;
57047;SDS011;42934;54.294;18.598;2023-08-01T05:45:13;6.53;;;4.65;;
57047;SDS011;42934;54.294;18.598;2023-08-01T05:47:43;7.13;;;4.60;;
57047;SDS011;42934;54.294;18.598;2023-08-01T05:50:13;6.88;;;4.47;;
57047;SDS011;42934;54.294;18.598;2023-08-01T05:52:42;6.78;;;4.97;;
57047;SDS011;42934;54.294;18.598;2023-08-01T05:55:11;6.57;;;4.22;;
57047;SDS011;42934;54.294;18.598;2023-08-01T05:57:41;8.23;;;4.43;;
57047;SDS011;42934;54.294;18.598;2023-08-01T06:00:11;7.38;;;4.90;;
57047;SDS011;42934;54.294;18.598;2023-08-01T06:02:42;7.35;;;4.97;;
57047;SDS011;42934;54.294;18.598;2023-08-01T06:05:12;8.07;;;4.75;;
57047;SDS011;42934;54.294;18.598;2023-08-01T06:07:41;7.45;;;4.60;;
57047;SDS011;42934;54.294;18.598;2023-08-01T06:10:10;6.68;;;4.55;;
57047;SDS011;42934;54.294;18.598;2023-08-01T06:12:39;6.80;;;4.22;;
57047;SDS011;42934;54.294;18.598;2023-08-01T06:15:09;6.00;;;4.00;;
57047;SDS011;42934;54.294;18.598;2023-08-01T06:17:38;8.02;;;4.63;;
57047;SDS011;42934;54.294;18.598;2023-08-01T06:20:10;7.50;;;4.60;;
57047;SDS011;42934;54.294;18.598;2023-08-01T06:22:39;6.90;;;4.75;;
57047;SDS011;42934;54.294;18.598;2023-08-01T06:25:09;9.88;;;4.38;;
57047;SDS011;42934;54.294;18.598;2023-08-01T06:27:39;10.07;;;5.57;;
57047;SDS011;42934;54.294;18.598;2023-08-01T06:30:08;7.95;;;4.80;;
57047;SDS011;42934;54.294;18.598;2023-08-01T06:35:08;6.73;;;5.13;;
57047;SDS011;42934;54.294;18.598;2023-08-01T06:37:38;7.05;;;5.10;;
57047;SDS011;42934;54.294;18.598;2023-08-01T06:40:08;7.60;;;5.32;;
57047;SDS011;42934;54.294;18.598;2023-08-01T06:42:37;10.20;;;5.35;;
57047;SDS011;42934;54.294;18.598;2023-08-01T06:45:08;8.93;;;5.70;;
57047;SDS011;42934;54.294;18.598;2023-08-01T06:47:37;7.18;;;4.95;;
57047;SDS011;42934;54.294;18.598;2023-08-01T06:50:07;11.63;;;5.45;;
57047;SDS011;42934;54.294;18.598;2023-08-01T06:55:07;8.63;;;5.15;;
57047;SDS011;42934;54.294;18.598;2023-08-01T06:57:37;6.40;;;4.63;;
57047;SDS011;42934;54.294;18.598;2023-08-01T07:00:06;8.07;;;5.20;;
57047;SDS011;42934;54.294;18.598;2023-08-01T07:02:37;7.45;;;5.70;;
57047;SDS011;42934;54.294;18.598;2023-08-01T07:07:36;8.15;;;5.05;;
57047;SDS011;42934;54.294;18.598;2023-08-01T07:10:07;10.50;;;6.38;;
57047;SDS011;42934;54.294;18.598;2023-08-01T07:12:37;11.38;;;5.78;;
57047;SDS011;42934;54.294;18.598;2023-08-01T07:15:07;13.98;;;6.55;;
57047;SDS011;42934;54.294;18.598;2023-08-01T07:17:37;8.95;;;5.88;;
57047;SDS011;42934;54.294;18.598;2023-08-01T07:20:07;10.27;;;6.55;;
57047;SDS011;42934;54.294;18.598;2023-08-01T07:22:36;8.07;;;6.00;;
57047;SDS011;42934;54.294;18.598;2023-08-01T07:25:07;8.73;;;6.50;;
57047;SDS011;42934;54.294;18.598;2023-08-01T07:27:38;10.27;;;6.90;;
57047;SDS011;42934;54.294;18.598;2023-08-01T07:30:08;10.05;;;7.45;;
57047;SDS011;42934;54.294;18.598;2023-08-01T07:32:38;13.48;;;7.78;;
57047;SDS011;42934;54.294;18.598;2023-08-01T07:35:09;10.68;;;7.22;;
57047;SDS011;42934;54.294;18.598;2023-08-01T07:37:41;10.50;;;7.30;;
57047;SDS011;42934;54.294;18.598;2023-08-01T07:40:10;10.73;;;7.20;;
57047;SDS011;42934;54.294;18.598;2023-08-01T07:42:40;10.97;;;7.10;;
57047;SDS011;42934;54.294;18.598;2023-08-01T07:45:09;8.85;;;7.28;;
57047;SDS011;42934;54.294;18.598;2023-08-01T07:47:38;10.73;;;7.03;;
57047;SDS011;42934;54.294;18.598;2023-08-01T07:50:08;9.93;;;6.78;;
57047;SDS011;42934;54.294;18.598;2023-08-01T07:52:37;9.68;;;6.55;;
57047;SDS011;42934;54.294;18.598;2023-08-01T07:55:08;10.10;;;6.63;;
57047;SDS011;42934;54.294;18.598;2023-08-01T07:57:37;9.20;;;6.50;;
57047;SDS011;42934;54.294;18.598;2023-08-01T08:00:09;8.20;;;6.45;;
57047;SDS011;42934;54.294;18.598;2023-08-01T08:02:40;10.07;;;6.72;;
57047;SDS011;42934;54.294;18.598;2023-08-01T08:05:10;9.13;;;6.43;;
57047;SDS011;42934;54.294;18.598;2023-08-01T08:10:10;8.80;;;6.22;;
57047;SDS011;42934;54.294;18.598;2023-08-01T08:12:41;12.27;;;6.47;;
57047;SDS011;42934;54.294;18.598;2023-08-01T08:15:10;9.33;;;6.70;;
57047;SDS011;42934;54.294;18.598;2023-08-01T08:17:40;11.60;;;6.53;;
57047;SDS011;42934;54.294;18.598;2023-08-01T08:20:10;10.27;;;6.63;;
57047;SDS011;42934;54.294;18.598;2023-08-01T08:22:39;11.27;;;6.35;;
57047;SDS011;42934;54.294;18.598;2023-08-01T08:25:08;10.10;;;7.07;;
57047;SDS011;42934;54.294;18.598;2023-08-01T08:27:39;11.20;;;6.72;;
57047;SDS011;42934;54.294;18.598;2023-08-01T08:30:08;10.67;;;6.43;;
57047;SDS011;42934;54.294;18.598;2023-08-01T08:35:07;8.27;;;6.53;;
57047;SDS011;42934;54.294;18.598;2023-08-01T08:37:38;11.38;;;6.38;;
57047;SDS011;42934;54.294;18.598;2023-08-01T08:40:07;9.82;;;5.90;;
57047;SDS011;42934;54.294;18.598;2023-08-01T08:42:39;9.20;;;6.72;;
57047;SDS011;42934;54.294;18.598;2023-08-01T08:45:09;10.00;;;5.72;;
57047;SDS011;42934;54.294;18.598;2023-08-01T08:47:40;9.90;;;6.80;;
57047;SDS011;42934;54.294;18.598;2023-08-01T08:50:12;9.88;;;7.00;;
57047;SDS011;42934;54.294;18.598;2023-08-01T08:52:43;12.18;;;6.97;;
57047;SDS011;42934;54.294;18.598;2023-08-01T08:55:14;7.55;;;6.22;;
57047;SDS011;42934;54.294;18.598;2023-08-01T08:57:45;8.77;;;6.03;;
57047;SDS011;42934;54.294;18.598;2023-08-01T09:00:17;9.90;;;7.13;;
57047;SDS011;42934;54.294;18.598;2023-08-01T09:02:47;8.98;;;7.38;;
57047;SDS011;42934;54.294;18.598;2023-08-01T09:05:17;7.10;;;6.40;;
57047;SDS011;42934;54.294;18.598;2023-08-01T09:07:48;6.00;;;4.75;;
57047;SDS011;42934;54.294;18.598;2023-08-01T09:10:20;6.97;;;5.32;;
57047;SDS011;42934;54.294;18.598;2023-08-01T09:12:51;7.50;;;6.70;;
57047;SDS011;42934;54.294;18.598;2023-08-01T09:15:21;8.50;;;5.43;;
57047;SDS011;42934;54.294;18.598;2023-08-01T09:20:22;7.93;;;5.00;;
57047;SDS011;42934;54.294;18.598;2023-08-01T09:22:51;7.25;;;5.20;;
57047;SDS011;42934;54.294;18.598;2023-08-01T09:25:30;7.70;;;5.40;;
57047;SDS011;42934;54.294;18.598;2023-08-01T09:28:01;8.27;;;5.00;;
57047;SDS011;42934;54.294;18.598;2023-08-01T09:30:31;6.45;;;5.35;;
57047;SDS011;42934;54.294;18.598;2023-08-01T09:33:01;7.57;;;5.30;;
57047;SDS011;42934;54.294;18.598;2023-08-01T09:35:30;6.27;;;4.93;;
57047;SDS011;42934;54.294;18.598;2023-08-01T09:38:07;9.73;;;5.80;;
57047;SDS011;42934;54.294;18.598;2023-08-01T09:40:36;8.52;;;5.97;;
57047;SDS011;42934;54.294;18.598;2023-08-01T09:43:07;6.85;;;5.03;;
57047;SDS011;42934;54.294;18.598;2023-08-01T09:45:37;7.43;;;5.60;;
57047;SDS011;42934;54.294;18.598;2023-08-01T09:48:24;8.45;;;5.50;;
57047;SDS011;42934;54.294;18.598;2023-08-01T09:51:03;8.60;;;5.57;;
57047;SDS011;42934;54.294;18.598;2023-08-01T09:53:46;6.50;;;4.97;;
57047;SDS011;42934;54.294;18.598;2023-08-01T09:56:17;9.68;;;5.93;;
57047;SDS011;42934;54.294;18.598;2023-08-01T09:58:50;8.50;;;5.80;;
57047;SDS011;42934;54.294;18.598;2023-08-01T10:01:21;7.68;;;5.15;;
57047;SDS011;42934;54.294;18.598;2023-08-01T10:03:52;7.18;;;6.25;;
57047;SDS011;42934;54.294;18.598;2023-08-01T10:06:27;8.20;;;5.10;;
57047;SDS011;42934;54.294;18.598;2023-08-01T10:09:00;9.30;;;5.60;;
57047;SDS011;42934;54.294;18.598;2023-08-01T10:11:30;8.35;;;6.38;;
57047;SDS011;42934;54.294;18.598;2023-08-01T10:14:04;8.43;;;5.93;;
57047;SDS011;42934;54.294;18.598;2023-08-01T10:16:34;7.40;;;6.18;;
57047;SDS011;42934;54.294;18.598;2023-08-01T10:19:06;8.75;;;5.80;;
57047;SDS011;42934;54.294;18.598;2023-08-01T10:21:38;8.18;;;6.22;;
57047;SDS011;42934;54.294;18.598;2023-08-01T10:24:10;9.68;;;6.10;;
57047;SDS011;42934;54.294;18.598;2023-08-01T10:26:40;8.73;;;5.78;;
57047;SDS011;42934;54.294;18.598;2023-08-01T10:29:13;6.20;;;5.40;;
57047;SDS011;42934;54.294;18.598;2023-08-01T10:31:50;8.27;;;6.00;;
57047;SDS011;42934;54.294;18.598;2023-08-01T10:34:20;6.70;;;5.53;;
57047;SDS011;42934;54.294;18.598;2023-08-01T10:36:53;7.07;;;5.77;;
57047;SDS011;42934;54.294;18.598;2023-08-01T10:39:23;5.70;;;4.97;;
57047;SDS011;42934;54.294;18.598;2023-08-01T10:41:56;6.60;;;5.45;;
57047;SDS011;42934;54.294;18.598;2023-08-01T10:44:28;7.75;;;5.50;;
57047;SDS011;42934;54.294;18.598;2023-08-01T10:47:00;5.82;;;5.13;;
57047;SDS011;42934;54.294;18.598;2023-08-01T10:49:35;7.45;;;5.60;;
57047;SDS011;42934;54.294;18.598;2023-08-01T10:52:15;7.32;;;6.03;;
57047;SDS011;42934;54.294;18.598;2023-08-01T10:57:15;8.67;;;5.60;;
57047;SDS011;42934;54.294;18.598;2023-08-01T10:59:47;8.80;;;5.72;;
57047;SDS011;42934;54.294;18.598;2023-08-01T11:02:19;7.15;;;5.70;;
57047;SDS011;42934;54.294;18.598;2023-08-01T11:04:56;7.72;;;6.15;;
57047;SDS011;42934;54.294;18.598;2023-08-01T11:07:26;6.43;;;5.68;;
57047;SDS011;42934;54.294;18.598;2023-08-01T11:12:33;9.30;;;6.07;;
57047;SDS011;42934;54.294;18.598;2023-08-01T11:15:06;8.68;;;5.35;;
57047;SDS011;42934;54.294;18.598;2023-08-01T11:17:36;5.60;;;5.07;;
57047;SDS011;42934;54.294;18.598;2023-08-01T11:20:07;7.43;;;5.65;;
57047;SDS011;42934;54.294;18.598;2023-08-01T11:22:38;6.45;;;5.70;;
57047;SDS011;42934;54.294;18.598;2023-08-01T11:25:19;9.00;;;6.30;;
57047;SDS011;42934;54.294;18.598;2023-08-01T11:28:00;8.27;;;5.75;;
57047;SDS011;42934;54.294;18.598;2023-08-01T11:30:33;9.45;;;6.32;;
57047;SDS011;42934;54.294;18.598;2023-08-01T11:33:12;8.00;;;5.82;;
57047;SDS011;42934;54.294;18.598;2023-08-01T11:35:42;8.52;;;6.25;;
57047;SDS011;42934;54.294;18.598;2023-08-01T11:38:12;8.27;;;6.50;;
57047;SDS011;42934;54.294;18.598;2023-08-01T11:40:41;6.95;;;6.07;;
57047;SDS011;42934;54.294;18.598;2023-08-01T11:43:11;8.63;;;5.97;;
57047;SDS011;42934;54.294;18.598;2023-08-01T11:45:49;7.45;;;6.43;;
57047;SDS011;42934;54.294;18.598;2023-08-01T11:48:19;8.20;;;6.97;;
57047;SDS011;42934;54.294;18.598;2023-08-01T11:50:56;9.60;;;7.03;;
57047;SDS011;42934;54.294;18.598;2023-08-01T11:53:26;9.07;;;7.70;;
57047;SDS011;42934;54.294;18.598;2023-08-01T11:58:28;8.80;;;7.50;;
57047;SDS011;42934;54.294;18.598;2023-08-01T12:01:03;9.43;;;8.18;;
57047;SDS011;42934;54.294;18.598;2023-08-01T12:03:41;10.43;;;8.23;;
57047;SDS011;42934;54.294;18.598;2023-08-01T12:06:12;12.20;;;8.40;;
57047;SDS011;42934;54.294;18.598;2023-08-01T12:08:42;10.82;;;8.77;;
57047;SDS011;42934;54.294;18.598;2023-08-01T12:11:20;8.80;;;7.88;;
57047;SDS011;42934;54.294;18.598;2023-08-01T12:14:00;12.02;;;9.63;;
57047;SDS011;42934;54.294;18.598;2023-08-01T12:16:32;10.70;;;8.90;;
57047;SDS011;42934;54.294;18.598;2023-08-01T12:19:01;13.00;;;9.20;;
57047;SDS011;42934;54.294;18.598;2023-08-01T12:21:31;10.88;;;8.85;;
57047;SDS011;42934;54.294;18.598;2023-08-01T12:24:01;12.23;;;8.90;;
57047;SDS011;42934;54.294;18.598;2023-08-01T12:29:01;10.88;;;8.77;;
57047;SDS011;42934;54.294;18.598;2023-08-01T12:31:31;11.30;;;8.88;;
57047;SDS011;42934;54.294;18.598;2023-08-01T12:34:01;13.30;;;8.30;;
57047;SDS011;42934;54.294;18.598;2023-08-01T12:36:30;9.35;;;8.15;;
57047;SDS011;42934;54.294;18.598;2023-08-01T12:38:59;10.23;;;8.60;;
57047;SDS011;42934;54.294;18.598;2023-08-01T12:41:29;9.65;;;8.57;;
57047;SDS011;42934;54.294;18.598;2023-08-01T12:43:58;9.77;;;8.77;;
57047;SDS011;42934;54.294;18.598;2023-08-01T12:46:27;9.38;;;8.48;;
57047;SDS011;42934;54.294;18.598;2023-08-01T12:48:58;14.90;;;9.43;;
57047;SDS011;42934;54.294;18.598;2023-08-01T12:51:28;10.68;;;8.23;;
57047;SDS011;42934;54.294;18.598;2023-08-01T12:53:57;12.43;;;7.90;;
57047;SDS011;42934;54.294;18.598;2023-08-01T12:56:26;12.60;;;7.88;;
57047;SDS011;42934;54.294;18.598;2023-08-01T12:58:55;9.15;;;7.70;;
57047;SDS011;42934;54.294;18.598;2023-08-01T13:01:25;12.02;;;8.38;;
57047;SDS011;42934;54.294;18.598;2023-08-01T13:03:54;11.87;;;7.63;;
57047;SDS011;42934;54.294;18.598;2023-08-01T13:06:25;8.30;;;7.05;;
57047;SDS011;42934;54.294;18.598;2023-08-01T13:08:54;10.27;;;8.23;;
57047;SDS011;42934;54.294;18.598;2023-08-01T13:11:23;10.32;;;8.20;;
57047;SDS011;42934;54.294;18.598;2023-08-01T13:13:53;9.07;;;7.15;;
57047;SDS011;42934;54.294;18.598;2023-08-01T13:16:22;12.75;;;9.00;;
57047;SDS011;42934;54.294;18.598;2023-08-01T13:18:51;12.13;;;9.38;;
57047;SDS011;42934;54.294;18.598;2023-08-01T13:21:22;10.18;;;8.90;;
57047;SDS011;42934;54.294;18.598;2023-08-01T13:23:52;14.20;;;8.85;;
57047;SDS011;42934;54.294;18.598;2023-08-01T13:26:22;11.23;;;8.50;;
57047;SDS011;42934;54.294;18.598;2023-08-01T13:28:51;10.33;;;8.73;;
57047;SDS011;42934;54.294;18.598;2023-08-01T13:31:20;14.63;;;9.48;;
57047;SDS011;42934;54.294;18.598;2023-08-01T13:33:50;10.30;;;8.48;;
57047;SDS011;42934;54.294;18.598;2023-08-01T13:36:19;10.85;;;8.40;;
57047;SDS011;42934;54.294;18.598;2023-08-01T13:38:51;10.88;;;7.82;;
57047;SDS011;42934;54.294;18.598;2023-08-01T13:41:21;8.23;;;6.65;;
57047;SDS011;42934;54.294;18.598;2023-08-01T13:43:50;9.25;;;7.28;;
57047;SDS011;42934;54.294;18.598;2023-08-01T13:46:19;8.48;;;6.40;;
57047;SDS011;42934;54.294;18.598;2023-08-01T13:48:51;8.70;;;6.57;;
57047;SDS011;42934;54.294;18.598;2023-08-01T13:51:20;8.75;;;6.13;;
57047;SDS011;42934;54.294;18.598;2023-08-01T13:53:50;7.77;;;6.37;;
57047;SDS011;42934;54.294;18.598;2023-08-01T13:56:22;10.50;;;6.45;;
57047;SDS011;42934;54.294;18.598;2023-08-01T13:58:52;9.73;;;6.68;;
57047;SDS011;42934;54.294;18.598;2023-08-01T14:01:21;7.75;;;6.68;;
57047;SDS011;42934;54.294;18.598;2023-08-01T14:03:50;9.10;;;6.17;;
57047;SDS011;42934;54.294;18.598;2023-08-01T14:06:20;7.50;;;6.20;;
57047;SDS011;42934;54.294;18.598;2023-08-01T14:08:49;6.75;;;6.13;;
57047;SDS011;42934;54.294;18.598;2023-08-01T14:11:20;9.07;;;6.07;;
57047;SDS011;42934;54.294;18.598;2023-08-01T14:13:50;8.52;;;6.47;;
57047;SDS011;42934;54.294;18.598;2023-08-01T14:16:19;9.73;;;7.03;;
57047;SDS011;42934;54.294;18.598;2023-08-01T14:18:48;8.05;;;7.00;;
57047;SDS011;42934;54.294;18.598;2023-08-01T14:21:18;9.15;;;7.38;;
57047;SDS011;42934;54.294;18.598;2023-08-01T14:23:47;10.32;;;7.93;;
57047;SDS011;42934;54.294;18.598;2023-08-01T14:26:18;9.65;;;7.82;;
57047;SDS011;42934;54.294;18.598;2023-08-01T14:28:47;13.55;;;8.48;;
57047;SDS011;42934;54.294;18.598;2023-08-01T14:31:17;9.93;;;8.43;;
57047;SDS011;42934;54.294;18.598;2023-08-01T14:33:46;14.20;;;8.23;;
57047;SDS011;42934;54.294;18.598;2023-08-01T14:36:15;11.27;;;7.90;;
57047;SDS011;42934;54.294;18.598;2023-08-01T14:38:44;12.77;;;8.33;;
57047;SDS011;42934;54.294;18.598;2023-08-01T14:41:20;13.73;;;9.35;;
57047;SDS011;42934;54.294;18.598;2023-08-01T14:43:56;10.40;;;9.05;;
57047;SDS011;42934;54.294;18.598;2023-08-01T14:46:25;25.13;;;9.77;;
57047;SDS011;42934;54.294;18.598;2023-08-01T14:48:54;13.98;;;7.40;;
57047;SDS011;42934;54.294;18.598;2023-08-01T14:51:24;8.77;;;5.93;;
57047;SDS011;42934;54.294;18.598;2023-08-01T14:53:53;10.65;;;4.95;;
57047;SDS011;42934;54.294;18.598;2023-08-01T14:56:24;5.65;;;4.40;;
57047;SDS011;42934;54.294;18.598;2023-08-01T14:58:53;5.03;;;3.20;;
57047;SDS011;42934;54.294;18.598;2023-08-01T15:01:22;3.95;;;2.47;;
57047;SDS011;42934;54.294;18.598;2023-08-01T15:03:52;3.92;;;1.85;;
57047;SDS011;42934;54.294;18.598;2023-08-01T15:06:22;2.92;;;2.00;;
57047;SDS011;42934;54.294;18.598;2023-08-01T15:08:53;3.28;;;1.60;;
57047;SDS011;42934;54.294;18.598;2023-08-01T15:11:24;12.73;;;1.85;;
57047;SDS011;42934;54.294;18.598;2023-08-01T15:13:53;1.65;;;1.10;;
57047;SDS011;42934;54.294;18.598;2023-08-01T15:16:22;2.00;;;1.20;;
57047;SDS011;42934;54.294;18.598;2023-08-01T15:18:52;2.13;;;1.50;;
57047;SDS011;42934;54.294;18.598;2023-08-01T15:21:21;1.73;;;1.40;;
57047;SDS011;42934;54.294;18.598;2023-08-01T15:23:52;4.25;;;1.63;;